METAR Data
IDs: Format: Raw Decoded Include TAF

Data at: 1321 UTC 16 Oct 2018

PAMB 161256Z AUTO 13012G17KT 10SM OVC047 09/07 A2908 RMK AO2 SLP854 T00890072 $
PAMB 161156Z AUTO 13011KT 10SM BKN044 OVC060 09/07 A2908 RMK AO2 SLP854 70007 T00890072 10089 20089 53004 $
PAMB 161056Z AUTO 13010KT 10SM OVC050 09/08 A2908 RMK AO2 SLP852 T00890078 $
PAMB 160956Z AUTO 13009KT 10SM BKN055 OVC070 09/07 A2908 RMK AO2 SLP852 T00890072 $
PAMB 160856Z AUTO 12012G18KT 10SM SCT065 OVC085 09/07 A2907 RMK AO2 SLP851 T00890072 401330067 51004 $
PAMB 160756Z AUTO 11008KT 10SM FEW013 OVC065 09/08 A2907 RMK AO2 SLP849 T00890078 $
PAMB 160656Z AUTO 11012KT 10SM OVC070 09/08 A2906 RMK AO2 SLP848 T00890078 $
PAMB 160556Z AUTO 10011G18KT 10SM BKN095 09/07 A2906 RMK AO2 SLP847 T00890072 10133 20089 50001 $
PAMB 160456Z AUTO 11011KT 10SM FEW060 SCT100 09/08 A2906 RMK AO2 SLP847 T00890078 $
PAMB 160356Z AUTO 11010G15KT 10SM FEW065 BKN110 09/08 A2906 RMK AO2 SLP846 T00940083 $
PAMB 160256Z AUTO 11010G18KT 10SM FEW080 10/08 A2906 RMK AO2 SLP846 T01000083 56014 $
PAMB 160231Z AUTO 11011KT 10SM SCT020 11/08 A2906 RMK AO2 $
PAMB 160211Z AUTO 12014G19KT 10SM BKN020 12/08 A2907 RMK AO2 $
PAMB 160156Z AUTO 12016G20KT 9SM FEW022 12/08 A2907 RMK AO2 SLP849 T01170083 $
PAMB 160056Z AUTO 12013G22KT 10SM FEW029 BKN060 OVC090 12/08 A2908 RMK AO2 PK WND 11026/0038 SLP853 T01170083 $
PAMB 152356Z AUTO 12012G22KT 10SM FEW025 BKN041 OVC070 12/08 A2910 RMK AO2 RAB34E51 SLP860 P0000 60000 T01220078 10122 20072 56012 $
PAMB 152256Z AUTO 10015KT 10SM BKN025 OVC080 12/08 A2911 RMK AO2 PK WND 08029/2218 SLP865 T01220083 $
PAMB 152156Z AUTO 08017G20KT 10SM BKN027 BKN100 OVC120 11/08 A2913 RMK AO2 SLP871 T01110078 $
PAMB 152008Z AUTO 08012KT 10SM SCT025 08/07 A2916 RMK AO2 $
PAMB 151956Z AUTO 08014G20KT 10SM BKN025 09/07 A2916 RMK AO2 SLP881 T00890072 $
PAMB 151856Z AUTO 07015G25KT 10SM OVC027 08/07 A2917 RMK AO2 SLP886 T00830072 $
PAMB 151817Z AUTO 06016G20KT 10SM SCT007 OVC029 08/07 A2919 RMK AO2 $
PAMB 151756Z AUTO 06014G20KT 10SM FEW007 BKN031 OVC048 07/07 A2919 RMK AO2 SLP891 60007 T00720067 10078 20072 58005 $
PAMB 151739Z AUTO 06015G21KT 10SM FEW007 BKN033 OVC048 07/07 A2919 RMK AO2 $
PAMB 151556Z AUTO 08015G19KT 10SM -RA FEW020 BKN050 OVC095 07/07 A2920 RMK AO2 SLP896 P0000 T00720067 $
PAMB 151551Z AUTO 07014G20KT 10SM -RA SCT020 BKN029 OVC100 07/06 A2920 RMK AO2 P0000 $
PAMB 151456Z AUTO 07014G21KT 10SM -RA OVC041 07/06 A2922 RMK AO2 RAE1357B29 SLP900 P0000 60007 T00720061 58019 $
PAMB 151356Z AUTO 06014KT 10SM -RA OVC041 07/06 A2923 RMK AO2 SLP906 P0002 T00720061 $
PAMB 151300Z AUTO 07017G22KT 6SM -RA BR FEW009 BKN036 OVC044 07/06 A2926 RMK AO2 P0000 $
PAMB 151256Z AUTO 07014G22KT 5SM -RA BR FEW022 BKN029 OVC042 07/06 A2926 RMK AO2 PK WND 08026/1217 SLP915 P0005 T00720061 $
PAMB 151246Z AUTO 07017KT 6SM -RA BR SCT021 SCT026 OVC042 07/06 A2927 RMK AO2 PK WND 08026/1217 P0004 $
PAMB 151156Z AUTO 07018G24KT 10SM -RA BKN029 BKN037 OVC049 07/06 A2927 RMK AO2 PK WND 06026/1136 SLP919 P0008 60013 70014 T00720061 10072 20067 58019 $
PAMB 151056Z AUTO 07016G24KT 9SM -RA OVC035 07/06 A2930 RMK AO2 PK WND 06027/1005 SLP928 P0002 T00720061 $
PAMB 150956Z AUTO 07018G23KT 7SM -RA OVC034 07/06 A2933 RMK AO2 RAE13B29 SLP938 P0001 T00670056 $
PAMB 150856Z AUTO 06017G22KT 10SM -RA BKN038 OVC047 07/06 A2933 RMK AO2 RAB13 SLP938 P0002 60002 T00670056 401000050 58020 $
PAMB 150756Z AUTO 07019G25KT 10SM FEW039 SCT049 OVC090 07/05 A2935 RMK AO2 RAB12E36 SLP944 P0000 T00720050 $
PAMB 150743Z AUTO 06018G25KT 10SM SCT029 BKN041 OVC090 07/05 A2935 RMK AO2 RAB12E36 P0000 $
PAMB 150724Z AUTO 07018G24KT 10SM -RA BKN029 OVC037 07/05 A2936 RMK AO2 RAB12 P0000 $
PAMB 150656Z AUTO 07017G25KT 10SM BKN035 OVC100 07/04 A2938 RMK AO2 PK WND 07026/0641 RAE15 SLP956 P0000 T00720044 $
PAMB 150556Z AUTO 07018G24KT 10SM -RA BKN041 OVC049 07/04 A2939 RMK AO2 PK WND 07028/0536 RAB41 SLP958 P0000 60001 T00720044 10100 20072 56007 $
PAMB 150456Z AUTO 07017G26KT 10SM OVC043 08/04 A2939 RMK AO2 PK WND 07027/0433 SLP958 P0001 T00780044 $
PAMB 150356Z AUTO 06016G21KT 10SM BKN050 BKN070 OVC110 08/05 A2940 RMK AO2 SLP962 T00830050 $
PAMB 150256Z AUTO 07013G18KT 10SM BKN065 09/04 A2941 RMK AO2 SLP965 T00940044 58031 $
PAMB 150156Z AUTO 09013G19KT 060V130 10SM SCT047 10/04 A2944 RMK AO2 SLP975 T01000044 $